Time;durP1;ratioP1;P1;durP2;ratioP2;P2;SDS_P1;SDS_P2;PMS_P1;PMS_P2;Temp;Humidity;BMP_temperature;BMP_pressure;BME280_temperature;BME280_humidity;BME280_pressure;Samples;Min_cycle;Max_cycle;Signal;HPM_P1;HPM_P2
2023/07/09 00:01:38;;;;;;;7.70;2.90;;;22.80;99.90;;;;;;5071360;28;20392;-77
2023/07/09 00:04:03;;;;;;;8.60;2.90;;;22.90;99.90;;;;;;5071844;28;20375;-77
2023/07/09 00:06:29;;;;;;;7.47;2.70;;;22.90;99.90;;;;;;5069667;28;20396;-77
2023/07/09 00:12:02;;;;;;;7.95;2.70;;;22.90;99.90;;;;;;5463280;23;20427;-71
2023/07/09 00:14:28;;;;;;;8.63;2.50;;;22.80;99.90;;;;;;5029156;28;21048;-70
2023/07/09 00:16:54;;;;;;;8.90;3.35;;;22.70;99.90;;;;;;5030564;28;20398;-70
2023/07/09 00:19:23;;;;;;;7.97;2.63;;;22.60;99.90;;;;;;5030502;28;20395;-71
2023/07/09 00:21:53;;;;;;;9.52;3.42;;;22.50;99.90;;;;;;5030463;28;20383;-70
2023/07/09 00:24:19;;;;;;;9.65;3.35;;;22.50;99.90;;;;;;5030895;28;20400;-70
2023/07/09 00:26:48;;;;;;;7.80;2.80;;;22.60;99.90;;;;;;5049874;28;20534;-70
2023/07/09 00:29:13;;;;;;;9.05;2.83;;;22.60;99.90;;;;;;5050146;28;20393;-70
2023/07/09 00:31:40;;;;;;;8.98;3.28;;;22.60;99.90;;;;;;5049889;28;20706;-71
2023/07/09 00:34:13;;;;;;;7.43;3.03;;;22.50;99.90;;;;;;5044111;28;20768;-70
2023/07/09 00:36:40;;;;;;;9.20;3.13;;;22.50;99.90;;;;;;5029978;28;20399;-70
2023/07/09 00:39:15;;;;;;;8.60;2.97;;;22.50;99.90;;;;;;5049186;28;20394;-70
2023/07/09 00:41:41;;;;;;;9.50;2.90;;;22.50;99.90;;;;;;5049991;28;20396;-70
2023/07/09 00:44:19;;;;;;;10.57;3.40;;;22.50;99.90;;;;;;5050584;28;20440;-70
2023/07/09 00:46:48;;;;;;;9.02;3.03;;;22.40;99.90;;;;;;5049834;28;20412;-70
2023/07/09 00:49:17;;;;;;;8.27;3.03;;;22.30;99.90;;;;;;5049800;28;20758;-70
2023/07/09 00:51:45;;;;;;;9.40;3.50;;;22.20;99.90;;;;;;5049628;28;20447;-70
2023/07/09 00:54:19;;;;;;;9.90;3.70;;;22.20;99.90;;;;;;5049371;28;20902;-70
2023/07/09 00:56:51;;;;;;;11.57;3.40;;;22.10;99.90;;;;;;5049386;28;20943;-70
2023/07/09 00:59:20;;;;;;;9.65;3.20;;;22.10;99.90;;;;;;5031546;28;20401;-70
2023/07/09 01:01:49;;;;;;;8.43;3.28;;;22.20;99.90;;;;;;5049599;28;20390;-70
2023/07/09 01:04:17;;;;;;;9.10;2.70;;;22.10;99.90;;;;;;5048809;28;20484;-70
2023/07/09 01:06:50;;;;;;;7.90;2.90;;;21.90;99.90;;;;;;5049579;28;20420;-70
2023/07/09 01:09:17;;;;;;;9.45;3.53;;;21.90;1.00;;;;;;5049048;28;20475;-70
2023/07/09 01:11:42;;;;;;;8.57;3.60;;;21.90;1.00;;;;;;5047953;28;20409;-70
2023/07/09 01:14:12;;;;;;;9.40;2.90;;;22.00;1.00;;;;;;5066894;28;20520;-71
2023/07/09 01:16:42;;;;;;;9.32;3.70;;;22.00;99.90;;;;;;5069775;28;20930;-70
2023/07/09 01:19:09;;;;;;;9.02;3.58;;;22.00;99.90;;;;;;5070092;28;20563;-71
2023/07/09 01:21:34;;;;;;;9.07;3.55;;;22.00;99.90;;;;;;5069151;28;20462;-71
2023/07/09 01:24:14;;;;;;;8.80;3.90;;;22.10;99.90;;;;;;5069255;28;20415;-71
2023/07/09 01:26:40;;;;;;;9.38;3.20;;;22.00;99.90;;;;;;5069111;28;20403;-72
2023/07/09 01:29:06;;;;;;;10.40;3.83;;;21.90;1.00;;;;;;5069772;28;20415;-71
2023/07/09 01:31:32;;;;;;;10.03;3.67;;;21.80;1.00;;;;;;5069583;28;20395;-72
2023/07/09 01:33:58;;;;;;;8.70;3.80;;;21.70;1.00;;;;;;5076126;28;20411;-72
2023/07/09 01:36:24;;;;;;;10.15;4.00;;;21.70;1.00;;;;;;5091932;28;20375;-72
2023/07/09 01:38:51;;;;;;;11.20;3.85;;;21.80;1.00;;;;;;5091892;28;20391;-72
2023/07/09 01:41:17;;;;;;;8.98;3.80;;;21.90;1.00;;;;;;5084761;28;20446;-73
2023/07/09 01:43:44;;;;;;;10.80;4.40;;;21.90;1.00;;;;;;5083499;28;20387;-73
2023/07/09 01:46:12;;;;;;;8.90;3.57;;;21.90;1.00;;;;;;5077815;28;20422;-72
2023/07/09 01:48:41;;;;;;;11.80;4.60;;;21.80;1.00;;;;;;5073042;28;20390;-72
2023/07/09 01:51:16;;;;;;;11.30;4.30;;;21.70;1.00;;;;;;5075648;28;20748;-71
2023/07/09 01:53:45;;;;;;;9.60;4.22;;;21.80;1.00;;;;;;5077496;28;20427;-71
2023/07/09 01:56:11;;;;;;;9.93;3.90;;;21.60;1.00;;;;;;5059234;28;20473;-72
2023/07/09 01:58:41;;;;;;;10.00;4.40;;;21.70;1.00;;;;;;5079190;28;20384;-72
2023/07/09 02:01:06;;;;;;;14.95;4.70;;;21.70;1.00;;;;;;5079593;28;20430;-72
2023/07/09 02:03:32;;;;;;;13.02;4.40;;;21.70;1.00;;;;;;5082173;28;20411;-71
2023/07/09 02:05:59;;;;;;;10.82;4.70;;;21.70;1.00;;;;;;5081984;28;20415;-72
2023/07/09 02:08:25;;;;;;;11.15;4.90;;;21.60;1.00;;;;;;5078941;28;20407;-72
2023/07/09 02:10:51;;;;;;;10.73;4.60;;;21.60;1.00;;;;;;5078807;28;20384;-72
2023/07/09 02:13:16;;;;;;;11.23;4.13;;;21.60;1.00;;;;;;5076736;28;20426;-72
2023/07/09 02:15:43;;;;;;;16.55;4.90;;;21.50;1.00;;;;;;5075504;28;21016;-72
2023/07/09 02:18:13;;;;;;;14.30;4.80;;;21.50;3.50;;;;;;5073064;28;20473;-72
2023/07/09 02:20:39;;;;;;;15.23;6.18;;;21.40;90.30;;;;;;5072728;28;20783;-72
2023/07/09 02:23:08;;;;;;;14.88;5.30;;;21.20;99.90;;;;;;5072407;28;20400;-72
2023/07/09 02:25:34;;;;;;;17.40;6.40;;;21.20;99.90;;;;;;5072658;28;20741;-72
2023/07/09 02:27:59;;;;;;;16.33;6.00;;;21.30;99.90;;;;;;5073798;28;20557;-73
2023/07/09 02:30:25;;;;;;;16.33;6.37;;;21.20;99.90;;;;;;5075088;28;20402;-72
2023/07/09 02:32:53;;;;;;;13.60;5.43;;;21.30;99.90;;;;;;5075610;28;20403;-72
2023/07/09 02:35:20;;;;;;;11.15;5.30;;;21.30;99.90;;;;;;5074336;28;20384;-72
2023/07/09 02:37:46;;;;;;;14.65;5.40;;;21.20;99.90;;;;;;5073930;28;20477;-72
2023/07/09 02:40:12;;;;;;;13.23;5.30;;;21.20;1.00;;;;;;5073922;28;20541;-71
2023/07/09 02:42:38;;;;;;;14.63;5.90;;;21.10;1.00;;;;;;5072958;28;20414;-71
2023/07/09 02:45:04;;;;;;;13.00;5.55;;;21.00;1.00;;;;;;5073946;28;20384;-72
2023/07/09 02:47:30;;;;;;;13.65;5.00;;;21.10;1.00;;;;;;5072755;28;20399;-72
2023/07/09 02:49:56;;;;;;;12.27;5.03;;;21.10;99.90;;;;;;5072292;28;20386;-70
2023/07/09 02:52:21;;;;;;;15.10;4.97;;;21.10;99.90;;;;;;5072314;28;20423;-69
2023/07/09 02:54:47;;;;;;;12.40;4.93;;;21.20;99.90;;;;;;5071682;28;20399;-70
2023/07/09 02:57:13;;;;;;;12.90;4.90;;;21.30;99.90;;;;;;5073049;28;20423;-69
2023/07/09 02:59:38;;;;;;;15.30;5.30;;;21.30;99.90;;;;;;5073934;28;20451;-70
2023/07/09 03:02:04;;;;;;;14.90;5.90;;;21.30;99.90;;;;;;5073004;28;20395;-71
2023/07/09 03:04:31;;;;;;;18.05;6.55;;;21.10;99.90;;;;;;5072081;28;20426;-71
2023/07/09 03:06:57;;;;;;;14.80;6.18;;;21.10;99.90;;;;;;5070302;28;20411;-71
2023/07/09 03:09:23;;;;;;;18.23;6.97;;;21.10;99.90;;;;;;5071566;28;20391;-71
2023/07/09 03:11:48;;;;;;;18.77;6.18;;;20.80;1.00;;;;;;5071605;28;20486;-71
2023/07/09 03:14:14;;;;;;;18.40;6.60;;;20.70;99.90;;;;;;5071457;28;20424;-72
2023/07/09 03:16:40;;;;;;;14.60;5.57;;;20.50;99.90;;;;;;5071523;28;20418;-73
2023/07/09 03:19:06;;;;;;;12.48;6.00;;;20.50;99.90;;;;;;5053816;28;20399;-73
2023/07/09 03:21:32;;;;;;;13.95;5.40;;;20.60;99.90;;;;;;5072031;28;20392;-71
2023/07/09 03:23:58;;;;;;;13.20;4.80;;;20.80;99.90;;;;;;5071477;28;20423;-72
2023/07/09 03:26:25;;;;;;;11.70;4.38;;;20.80;99.90;;;;;;5072030;28;20437;-72
2023/07/09 03:28:51;;;;;;;13.13;4.70;;;20.90;82.60;;;;;;5073045;28;20392;-72
2023/07/09 03:31:17;;;;;;;11.03;4.77;;;21.00;1.00;;;;;;5055901;28;20456;-72
2023/07/09 03:33:43;;;;;;;11.35;4.88;;;20.90;47.20;;;;;;5054629;28;20424;-72
2023/07/09 03:36:08;;;;;;;11.17;4.90;;;20.90;16.80;;;;;;5069258;28;20427;-71
2023/07/09 03:38:34;;;;;;;13.90;5.00;;;20.90;39.60;;;;;;5053946;28;20444;-71
2023/07/09 03:41:00;;;;;;;12.60;4.27;;;20.80;99.90;;;;;;5069598;28;20412;-72
2023/07/09 03:43:25;;;;;;;11.93;4.00;;;20.80;99.90;;;;;;5071132;28;20461;-72
2023/07/09 03:45:51;;;;;;;10.33;4.13;;;20.80;99.90;;;;;;5071294;28;20452;-73
2023/07/09 03:48:18;;;;;;;9.10;4.22;;;20.80;99.90;;;;;;5071272;28;20428;-73
2023/07/09 03:50:45;;;;;;;9.23;3.90;;;20.90;99.90;;;;;;5070417;28;20416;-73
2023/07/09 03:53:11;;;;;;;9.70;4.40;;;21.00;99.90;;;;;;5071094;28;20416;-73
2023/07/09 03:55:37;;;;;;;10.55;4.32;;;21.00;98.70;;;;;;5071660;28;20388;-72
2023/07/09 03:58:03;;;;;;;10.15;3.80;;;20.90;99.90;;;;;;5070767;28;20426;-72
2023/07/09 04:00:32;;;;;;;10.60;4.30;;;21.00;99.90;;;;;;5070754;28;21296;-72
2023/07/09 04:02:57;;;;;;;11.32;4.13;;;20.90;99.90;;;;;;5070804;28;20418;-73
2023/07/09 04:05:24;;;;;;;10.80;4.50;;;20.90;99.90;;;;;;5070812;28;20407;-72
2023/07/09 04:07:50;;;;;;;10.18;3.30;;;20.90;99.90;;;;;;5071267;28;20395;-72
2023/07/09 04:10:16;;;;;;;10.20;4.05;;;21.00;99.90;;;;;;5070982;28;20979;-72
2023/07/09 04:12:41;;;;;;;10.55;4.13;;;21.00;99.90;;;;;;5070414;28;20416;-72
2023/07/09 04:15:08;;;;;;;9.57;3.90;;;21.00;99.90;;;;;;5070396;28;20418;-72
2023/07/09 04:17:34;;;;;;;11.23;4.20;;;20.90;1.00;;;;;;5071009;28;20387;-72
2023/07/09 04:19:59;;;;;;;8.43;3.80;;;20.90;1.00;;;;;;5070421;28;20884;-72
2023/07/09 04:22:25;;;;;;;9.60;3.70;;;20.80;1.00;;;;;;5070698;28;20456;-72
2023/07/09 04:24:52;;;;;;;10.00;4.10;;;20.90;1.00;;;;;;5070374;28;20478;-72
2023/07/09 04:27:18;;;;;;;9.90;4.10;;;21.00;99.90;;;;;;5038691;28;20413;-72
2023/07/09 04:29:44;;;;;;;8.77;3.47;;;21.10;99.90;;;;;;5061997;28;20457;-72
2023/07/09 04:32:14;;;;;;;13.80;4.20;;;21.20;99.90;;;;;;5069390;28;20403;-72
2023/07/09 04:34:40;;;;;;;8.30;3.50;;;21.30;99.90;;;;;;5070132;28;20423;-72
2023/07/09 04:37:18;;;;;;;9.90;4.00;;;21.40;99.90;;;;;;5071163;28;20483;-72
2023/07/09 04:39:43;;;;;;;11.45;4.53;;;21.50;99.90;;;;;;5070233;28;20895;-72
2023/07/09 04:42:15;;;;;;;9.20;3.10;;;21.60;99.90;;;;;;5071259;28;20402;-72
2023/07/09 04:44:40;;;;;;;10.10;4.22;;;21.60;1.00;;;;;;5072621;28;20884;-72
2023/07/09 04:47:07;;;;;;;9.47;3.60;;;21.70;1.00;;;;;;5071688;28;20445;-72
2023/07/09 04:49:32;;;;;;;9.05;3.47;;;21.80;1.00;;;;;;5069300;28;20427;-72
2023/07/09 04:51:59;;;;;;;10.95;4.50;;;22.00;1.00;;;;;;5068859;28;21076;-72
2023/07/09 04:54:24;;;;;;;10.63;4.07;;;22.20;1.00;;;;;;5069627;28;20425;-70
2023/07/09 04:56:50;;;;;;;7.85;3.30;;;22.30;99.90;;;;;;5069710;28;20380;-70
2023/07/09 04:59:16;;;;;;;8.07;3.27;;;22.50;99.90;;;;;;5069699;28;20445;-70
2023/07/09 05:01:41;;;;;;;11.50;4.20;;;22.80;99.90;;;;;;5068696;28;20450;-70
2023/07/09 05:04:08;;;;;;;10.07;3.83;;;23.70;24.00;;;;;;5065933;28;20452;-73
2023/07/09 05:06:34;;;;;;;10.55;4.25;;;24.90;1.00;;;;;;5059661;28;20389;-72
2023/07/09 05:09:01;;;;;;;7.88;3.38;;;26.10;1.00;;;;;;5049655;28;20401;-72
2023/07/09 05:11:28;;;;;;;9.73;3.97;;;27.20;99.90;;;;;;5068725;28;20403;-73
2023/07/09 05:13:53;;;;;;;8.80;3.78;;;28.30;99.90;;;;;;5068737;28;20419;-73
2023/07/09 05:16:20;;;;;;;8.97;4.00;;;28.90;99.90;;;;;;5069461;28;20384;-73
2023/07/09 05:18:46;;;;;;;9.32;3.75;;;29.00;99.90;;;;;;5068917;28;20471;-70
2023/07/09 05:21:12;;;;;;;10.27;3.60;;;29.50;99.90;;;;;;5069673;28;20888;-70
2023/07/09 05:23:37;;;;;;;9.20;3.92;;;30.30;99.90;;;;;;5068810;28;20383;-71
2023/07/09 05:26:03;;;;;;;9.97;4.07;;;30.20;99.90;;;;;;5065653;28;20966;-71
2023/07/09 05:28:32;;;;;;;10.02;3.65;;;30.10;99.90;;;;;;5069496;28;20410;-74
2023/07/09 05:30:58;;;;;;;8.52;3.47;;;30.30;99.90;;;;;;5064293;28;20962;-74
2023/07/09 05:33:23;;;;;;;8.52;3.58;;;31.20;99.90;;;;;;5069602;28;20480;-71
2023/07/09 05:35:49;;;;;;;9.43;3.93;;;31.60;99.90;;;;;;5069216;28;20767;-71
2023/07/09 05:38:15;;;;;;;8.17;3.60;;;32.00;99.90;;;;;;5070364;28;20941;-71
2023/07/09 05:40:42;;;;;;;8.75;3.60;;;31.60;99.90;;;;;;5087937;28;20444;-71
2023/07/09 05:43:08;;;;;;;9.50;3.50;;;31.90;99.90;;;;;;5086562;28;20487;-71
2023/07/09 05:45:34;;;;;;;8.52;3.88;;;31.80;99.90;;;;;;5077987;28;20428;-71
2023/07/09 05:48:00;;;;;;;8.93;3.83;;;32.00;99.90;;;;;;5072615;28;20372;-71
2023/07/09 05:50:27;;;;;;;10.45;4.20;;;32.00;99.90;;;;;;5073184;28;20400;-71
2023/07/09 05:52:52;;;;;;;9.68;3.67;;;32.50;99.90;;;;;;5076053;28;20415;-71
2023/07/09 05:55:18;;;;;;;8.20;4.00;;;33.20;99.90;;;;;;5075884;28;20407;-71
2023/07/09 05:57:43;;;;;;;8.82;4.30;;;33.80;99.90;;;;;;5077738;28;20943;-71
2023/07/09 06:00:10;;;;;;;8.53;3.80;;;34.40;99.90;;;;;;5073897;28;20411;-71
2023/07/09 06:02:35;;;;;;;7.93;3.58;;;34.50;99.90;;;;;;5077705;28;20443;-71
2023/07/09 06:05:01;;;;;;;9.50;3.77;;;35.00;99.90;;;;;;5081283;28;20749;-72
2023/07/09 06:07:27;;;;;;;9.52;3.38;;;35.10;99.90;;;;;;5076250;28;20868;-73
2023/07/09 06:09:53;;;;;;;9.07;4.20;;;35.40;99.90;;;;;;5073095;28;20480;-72
2023/07/09 06:12:19;;;;;;;9.40;3.75;;;36.00;99.90;;;;;;5070946;28;20411;-73
2023/07/09 06:14:45;;;;;;;9.52;4.60;;;36.30;99.90;;;;;;5070178;28;20507;-72
2023/07/09 06:17:11;;;;;;;9.68;3.63;;;36.70;99.90;;;;;;5069586;28;20752;-73
2023/07/09 06:19:36;;;;;;;10.40;3.23;;;36.70;99.90;;;;;;5070551;28;20392;-72
2023/07/09 06:22:08;;;;;;;11.32;3.95;;;36.90;99.90;;;;;;5069892;28;20395;-72
2023/07/09 06:24:34;;;;;;;7.97;3.70;;;36.80;99.90;;;;;;5052522;28;20392;-70
2023/07/09 06:26:59;;;;;;;8.10;3.53;;;36.90;99.90;;;;;;5069022;28;20390;-70
2023/07/09 06:29:25;;;;;;;8.73;4.00;;;37.10;99.90;;;;;;5067055;28;20448;-70
2023/07/09 06:31:51;;;;;;;8.00;3.40;;;37.50;99.90;;;;;;5069751;28;20391;-70
2023/07/09 06:34:16;;;;;;;8.80;3.90;;;37.60;99.90;;;;;;5069332;28;20422;-70
2023/07/09 06:36:42;;;;;;;10.07;3.80;;;37.20;99.90;;;;;;5069512;28;20446;-69
2023/07/09 06:39:08;;;;;;;11.20;4.00;;;37.40;99.90;;;;;;5068364;28;20435;-70
2023/07/09 06:41:42;;;;;;;13.07;4.20;;;37.90;99.90;;;;;;5070019;28;20466;-70
2023/07/09 06:44:09;;;;;;;13.50;4.10;;;37.80;99.90;;;;;;5069820;28;20816;-71
2023/07/09 06:46:34;;;;;;;11.60;3.50;;;37.80;99.90;;;;;;5066628;28;20412;-72
2023/07/09 06:49:00;;;;;;;8.40;4.00;;;38.20;99.90;;;;;;5067979;28;20915;-71
2023/07/09 06:51:26;;;;;;;11.43;4.25;;;39.00;99.90;;;;;;5068380;28;20403;-71
2023/07/09 06:53:52;;;;;;;8.90;3.80;;;40.00;99.90;;;;;;5067722;28;20408;-72
2023/07/09 06:56:17;;;;;;;9.43;3.83;;;40.60;99.90;;;;;;5067374;28;20388;-71
2023/07/09 06:58:45;;;;;;;8.67;3.60;;;41.20;99.90;;;;;;5067287;28;20863;-72
2023/07/09 07:01:12;;;;;;;8.70;3.93;;;40.80;99.90;;;;;;5062013;28;20486;-72
2023/07/09 07:03:37;;;;;;;11.40;3.83;;;40.30;99.90;;;;;;5068324;28;20394;-72
2023/07/09 07:06:05;;;;;;;9.60;3.80;;;40.00;99.90;;;;;;5067881;28;20396;-72
2023/07/09 07:08:30;;;;;;;9.25;3.20;;;40.40;99.90;;;;;;5066743;28;20471;-72
2023/07/09 07:11:02;;;;;;;9.45;3.45;;;40.40;99.90;;;;;;5068106;28;20415;-72
2023/07/09 07:13:35;;;;;;;8.00;3.42;;;40.70;99.90;;;;;;5067267;28;20836;-72
2023/07/09 07:16:03;;;;;;;8.38;3.53;;;41.40;99.90;;;;;;5071254;28;20387;-72
2023/07/09 07:18:28;;;;;;;8.18;3.00;;;42.50;99.90;;;;;;5072441;28;20400;-72
2023/07/09 07:20:54;;;;;;;8.98;3.03;;;42.60;99.90;;;;;;5071799;28;20383;-72
2023/07/09 07:23:20;;;;;;;7.50;3.33;;;42.50;99.90;;;;;;5071729;28;20398;-72
2023/07/09 07:25:46;;;;;;;8.27;3.28;;;42.60;99.90;;;;;;5072627;28;20496;-72
2023/07/09 07:28:12;;;;;;;9.38;3.90;;;42.80;99.90;;;;;;5068684;28;20422;-72
2023/07/09 07:30:38;;;;;;;9.00;3.70;;;42.20;99.90;;;;;;5070939;28;20435;-72
2023/07/09 07:33:03;;;;;;;7.45;3.40;;;41.60;99.90;;;;;;5071174;28;20775;-72
2023/07/09 07:35:29;;;;;;;7.70;3.40;;;41.40;99.90;;;;;;5072662;28;20475;-72
2023/07/09 07:37:55;;;;;;;12.57;3.60;;;41.60;99.90;;;;;;5072946;28;20398;-72
2023/07/09 07:40:21;;;;;;;10.52;3.50;;;41.70;99.90;;;;;;5053765;28;20388;-72
2023/07/09 07:42:46;;;;;;;8.68;3.85;;;42.30;99.90;;;;;;5071529;28;20914;-72
2023/07/09 07:45:12;;;;;;;7.53;3.50;;;43.20;99.90;;;;;;5072399;28;20430;-72
2023/07/09 07:47:39;;;;;;;9.57;3.90;;;43.30;99.90;;;;;;5069205;28;20415;-69
2023/07/09 07:50:05;;;;;;;10.30;5.25;;;43.40;99.90;;;;;;5071140;28;20476;-72
2023/07/09 07:52:31;;;;;;;8.57;4.10;;;43.50;99.90;;;;;;5050093;28;20834;-72
2023/07/09 07:54:57;;;;;;;9.02;3.78;;;43.30;99.90;;;;;;5053390;28;20904;-72
2023/07/09 07:57:25;;;;;;;8.13;3.70;;;;;;;;;;5070290;28;20406;-72
2023/07/09 07:59:51;;;;;;;8.70;4.00;;;43.30;99.90;;;;;;5058027;28;20419;-72
2023/07/09 08:02:17;;;;;;;8.33;3.70;;;43.50;99.90;;;;;;5070779;28;20426;-73
2023/07/09 08:04:42;;;;;;;8.63;3.50;;;43.30;99.90;;;;;;5068894;28;20931;-72
2023/07/09 08:07:09;;;;;;;7.82;3.60;;;43.20;99.90;;;;;;5067227;28;20403;-72
2023/07/09 08:09:36;;;;;;;7.68;3.42;;;43.20;99.90;;;;;;5067965;28;20404;-71
2023/07/09 08:12:08;;;;;;;9.40;4.70;;;44.00;99.90;;;;;;5069550;28;20410;-72
2023/07/09 08:14:34;;;;;;;9.30;3.80;;;43.50;99.90;;;;;;5068679;28;20510;-70
2023/07/09 08:17:00;;;;;;;10.50;3.70;;;44.30;99.90;;;;;;5070000;28;20880;-70
2023/07/09 08:19:25;;;;;;;8.27;3.63;;;43.80;99.90;;;;;;5065229;28;20900;-71
2023/07/09 08:21:51;;;;;;;9.17;3.50;;;44.40;99.90;;;;;;5069834;28;20410;-70
2023/07/09 08:24:17;;;;;;;9.73;4.03;;;44.50;99.90;;;;;;5068378;28;20416;-70
2023/07/09 08:26:42;;;;;;;7.70;3.50;;;43.30;99.90;;;;;;5069204;28;20423;-70
2023/07/09 08:29:08;;;;;;;7.53;3.40;;;42.70;99.90;;;;;;5071653;28;20722;-71
2023/07/09 08:31:33;;;;;;;8.70;3.80;;;42.80;99.90;;;;;;5069873;28;20395;-72
2023/07/09 08:33:59;;;;;;;9.80;4.37;;;43.60;99.90;;;;;;5069335;28;20454;-72
2023/07/09 08:36:24;;;;;;;8.10;3.60;;;45.00;99.90;;;;;;5070113;28;20440;-72
2023/07/09 08:38:50;;;;;;;8.70;3.57;;;46.60;99.90;;;;;;5069776;28;20482;-72
2023/07/09 08:41:29;;;;;;;7.40;3.70;;;47.30;99.90;;;;;;5069157;28;20932;-72
2023/07/09 08:44:06;;;;;;;7.82;3.20;;;46.80;99.90;;;;;;5069848;28;20884;-72
2023/07/09 08:47:07;;;;;;;7.70;3.60;;;45.50;99.90;;;;;;5069703;28;20388;-72
2023/07/09 08:49:45;;;;;;;10.13;3.55;;;44.10;99.90;;;;;;5070032;28;20387;-72
2023/07/09 08:52:46;;;;;;;8.43;3.22;;;44.50;99.90;;;;;;5050396;28;20937;-72
2023/07/09 08:55:15;;;;;;;9.02;3.45;;;43.60;99.90;;;;;;5065477;28;20411;-71
2023/07/09 08:57:44;;;;;;;8.27;3.30;;;42.90;99.90;;;;;;5070557;28;20429;-71
2023/07/09 09:00:18;;;;;;;7.60;3.20;;;43.10;99.90;;;;;;5070475;28;20395;-71
2023/07/09 09:02:49;;;;;;;7.22;3.00;;;44.10;99.90;;;;;;5070383;28;20383;-71
2023/07/09 09:05:20;;;;;;;8.80;3.20;;;45.20;99.90;;;;;;5069853;28;20387;-71
2023/07/09 09:08:04;;;;;;;7.20;3.00;;;45.50;99.90;;;;;;5069896;28;20797;-71
2023/07/09 09:10:38;;;;;;;7.85;3.35;;;45.20;99.90;;;;;;5069591;28;20392;-71
2023/07/09 09:13:19;;;;;;;7.70;3.03;;;44.70;99.90;;;;;;5069867;28;20450;-71
2023/07/09 09:15:49;;;;;;;8.90;3.40;;;45.00;99.90;;;;;;5069510;28;20796;-71
2023/07/09 09:18:22;;;;;;;7.97;3.20;;;45.00;99.90;;;;;;5051662;28;20399;-71
2023/07/09 09:21:16;;;;;;;7.75;3.33;;;45.10;1.00;;;;;;5069208;28;20868;-71
2023/07/09 09:23:58;;;;;;;7.68;3.42;;;44.60;1.00;;;;;;5068492;28;20860;-72
2023/07/09 09:26:32;;;;;;;8.25;4.80;;;45.80;1.00;;;;;;5068868;28;20392;-72
2023/07/09 09:28:57;;;;;;;8.00;3.60;;;46.30;1.00;;;;;;5069235;28;20399;-71
2023/07/09 09:31:27;;;;;;;8.90;3.70;;;46.20;1.00;;;;;;5069085;28;20383;-72
2023/07/09 09:33:53;;;;;;;7.57;3.40;;;45.80;1.00;;;;;;5068498;28;20427;-72
2023/07/09 09:36:24;;;;;;;7.63;3.80;;;46.60;1.00;;;;;;5068697;28;20589;-72
2023/07/09 09:38:51;;;;;;;8.70;3.40;;;45.90;1.00;;;;;;5069078;28;20396;-72
2023/07/09 09:41:23;;;;;;;7.70;3.20;;;45.80;1.00;;;;;;5069330;28;20414;-72
2023/07/09 09:43:52;;;;;;;7.35;3.03;;;45.50;1.00;;;;;;5068730;28;20392;-72
2023/07/09 09:46:23;;;;;;;7.20;3.20;;;45.40;1.00;;;;;;5068917;28;20391;-72
2023/07/09 09:48:50;;;;;;;8.43;3.33;;;45.60;1.00;;;;;;5068215;28;20467;-72
2023/07/09 09:51:17;;;;;;;7.80;3.30;;;45.40;1.00;;;;;;5068768;28;20392;-72
2023/07/09 09:53:51;;;;;;;7.43;3.22;;;45.90;1.00;;;;;;5068145;28;20415;-72
2023/07/09 09:56:24;;;;;;;7.05;3.20;;;44.60;1.00;;;;;;5068640;28;20391;-72
2023/07/09 09:58:54;;;;;;;8.98;3.80;;;44.70;1.00;;;;;;5068351;28;20884;-72
2023/07/09 10:01:25;;;;;;;7.77;3.47;;;45.10;1.00;;;;;;5068398;28;20422;-72
2023/07/09 10:03:55;;;;;;;7.60;3.47;;;45.20;1.00;;;;;;5068221;28;20426;-72
2023/07/09 10:06:28;;;;;;;8.45;3.67;;;45.10;1.00;;;;;;5068070;28;20375;-72
2023/07/09 10:09:24;;;;;;;6.95;2.97;;;44.80;1.00;;;;;;5068014;28;20503;-71
2023/07/09 10:12:21;;;;;;;7.10;3.17;;;44.90;1.00;;;;;;5068236;28;20392;-71
2023/07/09 10:14:58;;;;;;;8.13;3.10;;;45.00;1.00;;;;;;5005490;28;20508;-72
2023/07/09 10:17:37;;;;;;;8.05;3.03;;;45.50;1.00;;;;;;5048266;28;20405;-72
2023/07/09 10:20:23;;;;;;;7.60;2.70;;;45.80;1.00;;;;;;5047841;28;20393;-72
2023/07/09 10:22:51;;;;;;;7.50;2.97;;;45.20;1.00;;;;;;5048110;28;20441;-72
2023/07/09 10:25:53;;;;;;;8.27;2.90;;;45.30;1.00;;;;;;5047855;28;20393;-72
2023/07/09 10:28:31;;;;;;;8.50;3.03;;;45.30;1.00;;;;;;5025994;28;20405;-72
2023/07/09 10:31:34;;;;;;;7.47;3.33;;;44.70;1.00;;;;;;5047810;28;20747;-72
2023/07/09 10:34:45;;;;;;;7.38;3.03;;;43.20;1.00;;;;;;5047852;28;20498;-72
2023/07/09 10:37:38;;;;;;;8.15;3.00;;;42.10;1.00;;;;;;5014298;28;20393;-71
2023/07/09 10:40:08;;;;;;;7.50;2.60;;;41.10;1.00;;;;;;5048238;28;20408;-71
2023/07/09 10:42:55;;;;;;;9.13;3.30;;;40.80;1.00;;;;;;5048447;28;20469;-71
2023/07/09 10:45:34;;;;;;;9.40;3.20;;;40.30;99.90;;;;;;5030171;28;20422;-72
2023/07/09 10:48:06;;;;;;;9.02;3.28;;;39.80;99.90;;;;;;5031366;28;21028;-71
2023/07/09 10:50:37;;;;;;;8.70;3.90;;;39.50;99.90;;;;;;5051355;28;20765;-71
2023/07/09 10:53:15;;;;;;;8.23;3.50;;;39.60;99.90;;;;;;5051831;28;20471;-71
2023/07/09 10:55:53;;;;;;;8.27;3.05;;;39.50;99.90;;;;;;5052066;28;20393;-72
2023/07/09 10:58:38;;;;;;;8.55;2.70;;;39.20;99.90;;;;;;5051667;28;20389;-71
2023/07/09 11:01:04;;;;;;;7.60;2.53;;;39.00;99.90;;;;;;5051891;28;20490;-71
2023/07/09 11:03:48;;;;;;;7.30;3.00;;;38.50;99.90;;;;;;5051737;28;20378;-71
2023/07/09 11:06:38;;;;;;;8.80;3.30;;;38.30;1.00;;;;;;5051541;28;20423;-71
2023/07/09 11:09:29;;;;;;;7.85;3.00;;;38.50;1.00;;;;;;5052598;28;20484;-71
2023/07/09 11:11:58;;;;;;;9.63;3.00;;;38.40;1.00;;;;;;5051519;28;20400;-71
2023/07/09 11:14:28;;;;;;;9.47;3.30;;;38.30;1.00;;;;;;5070721;28;20423;-71
2023/07/09 11:16:56;;;;;;;9.03;3.27;;;38.30;1.00;;;;;;5071220;28;20445;-71
2023/07/09 11:19:21;;;;;;;6.60;2.40;;;38.40;1.00;;;;;;5070879;28;20399;-71
2023/07/09 11:22:07;;;;;;;9.53;2.60;;;38.90;1.00;;;;;;5071272;28;20494;-71
2023/07/09 11:24:50;;;;;;;10.10;3.17;;;39.20;1.00;;;;;;5071129;28;20444;-71
2023/07/09 11:27:25;;;;;;;8.43;2.75;;;39.20;1.00;;;;;;5071339;28;20748;-71
2023/07/09 11:30:17;;;;;;;7.85;2.80;;;39.30;1.00;;;;;;5069736;28;20478;-71
2023/07/09 11:32:47;;;;;;;9.40;3.42;;;39.30;1.00;;;;;;5067160;28;20400;-71
2023/07/09 11:35:27;;;;;;;8.73;2.87;;;39.10;1.00;;;;;;5070420;28;20395;-71
2023/07/09 11:37:54;;;;;;;7.72;3.00;;;38.80;1.00;;;;;;5071104;28;20420;-71
2023/07/09 11:40:22;;;;;;;10.95;2.92;;;38.80;1.00;;;;;;5070343;28;20401;-71
2023/07/09 11:42:53;;;;;;;8.25;2.50;;;38.90;1.00;;;;;;5069600;28;20418;-71
2023/07/09 11:45:27;;;;;;;10.50;3.30;;;38.50;1.00;;;;;;5070485;28;20392;-70
2023/07/09 11:48:18;;;;;;;8.40;2.90;;;38.00;1.00;;;;;;5070761;28;20487;-70
2023/07/09 11:50:49;;;;;;;9.20;3.20;;;38.00;1.00;;;;;;5070451;28;20837;-71
2023/07/09 11:53:23;;;;;;;7.72;2.60;;;37.90;1.00;;;;;;5067845;28;20420;-71
2023/07/09 11:55:49;;;;;;;7.85;2.50;;;38.20;1.00;;;;;;5070864;28;20872;-70
2023/07/09 11:58:17;;;;;;;9.75;3.08;;;38.30;1.00;;;;;;5070555;28;20383;-70
2023/07/09 12:00:45;;;;;;;7.50;2.35;;;38.40;1.00;;;;;;5070428;28;20392;-70
2023/07/09 12:03:17;;;;;;;7.50;2.55;;;38.30;1.00;;;;;;5070896;28;20450;-70
2023/07/09 12:05:49;;;;;;;10.40;2.78;;;38.20;1.00;;;;;;5070555;28;20388;-70
2023/07/09 12:08:15;;;;;;;9.02;3.10;;;38.40;1.00;;;;;;5070325;28;20398;-70
2023/07/09 12:10:42;;;;;;;8.63;2.97;;;38.40;1.00;;;;;;5070629;28;20397;-71
2023/07/09 12:13:11;;;;;;;10.00;3.20;;;38.60;1.00;;;;;;5070666;28;20867;-71
2023/07/09 12:15:40;;;;;;;7.22;2.50;;;38.80;1.00;;;;;;5070707;28;20379;-71
2023/07/09 12:18:14;;;;;;;7.30;2.90;;;38.90;1.00;;;;;;5070358;28;20400;-71
2023/07/09 12:20:41;;;;;;;8.40;2.55;;;39.30;1.00;;;;;;5070541;28;20395;-72
2023/07/09 12:23:18;;;;;;;8.32;2.60;;;39.20;1.00;;;;;;5070873;28;20384;-70
2023/07/09 12:25:51;;;;;;;11.20;2.65;;;39.30;1.00;;;;;;5070150;28;20482;-71
2023/07/09 12:28:18;;;;;;;7.60;2.50;;;39.40;1.00;;;;;;5067715;28;20503;-71
2023/07/09 12:30:50;;;;;;;7.88;2.80;;;39.20;1.00;;;;;;5047174;28;20396;-70
2023/07/09 12:33:22;;;;;;;7.90;2.50;;;39.20;1.00;;;;;;5069980;28;20486;-71
2023/07/09 12:35:54;;;;;;;8.25;2.70;;;39.00;1.00;;;;;;5070277;28;20391;-71
2023/07/09 12:38:21;;;;;;;7.55;2.80;;;39.00;1.00;;;;;;5070086;28;20474;-71
2023/07/09 12:40:52;;;;;;;8.65;2.63;;;39.20;1.00;;;;;;5069760;28;20756;-72
2023/07/09 12:43:25;;;;;;;9.82;2.63;;;39.10;1.00;;;;;;5069913;28;20384;-71
2023/07/09 12:45:52;;;;;;;10.23;2.43;;;39.10;1.00;;;;;;5069852;28;20396;-70
2023/07/09 12:48:21;;;;;;;8.70;3.03;;;38.50;1.00;;;;;;5069207;28;20399;-70
2023/07/09 12:50:51;;;;;;;8.05;2.63;;;38.30;1.00;;;;;;5069335;28;20403;-71
2023/07/09 12:53:18;;;;;;;9.43;3.00;;;38.30;1.00;;;;;;5069377;28;20419;-70
2023/07/09 12:55:49;;;;;;;8.88;2.65;;;38.40;1.00;;;;;;5069001;28;20887;-69
2023/07/09 12:58:25;;;;;;;8.43;2.87;;;38.40;1.00;;;;;;5069190;28;20380;-69
2023/07/09 13:00:53;;;;;;;9.50;2.80;;;38.20;1.00;;;;;;5069760;28;20752;-70
2023/07/09 13:03:21;;;;;;;9.10;2.40;;;38.30;1.00;;;;;;5069711;28;20391;-70